<?xml version="1.0" encoding="UTF-8" standalone="no" ?>
<gpx xmlns="http://www.topografix.com/GPX/1/1" xmlns:xsi="http://www.w3.org/2001/XMLSchema-instance" xsi:schemaLocation="http://www.topografix.com/GPX/1/1 http://www.topografix.com/GPX/1/1/gpx.xsd" version="1.1" creator="VisuGPX - https://www.visugpx.com">
  <metadata>
    <name>Préparation Boucieu le Roy 201905 (boucle Orion) (Randonnée Pédestre)</name>
    <desc><![CDATA[Préparation Boucieu le Roy 201905 (boucle Orion) (Randonnée Pédestre)]]></desc>
  </metadata>
  <trk>
    <name><![CDATA[1103658-Parcours d'Orion]]></name>
    <trkseg>
      <trkpt lat="45.03499" lon="4.68228">
        <ele>306</ele>
        <time>2019-02-15T10:23:04Z</time>
      </trkpt>
      <trkpt lat="45.03488" lon="4.68208">
        <ele>306</ele>
        <time>2019-02-15T10:24:04Z</time>
      </trkpt>
      <trkpt lat="45.03488" lon="4.68208">
        <ele>306</ele>
        <time>2019-02-15T10:25:04Z</time>
      </trkpt>
      <trkpt lat="45.03498" lon="4.68201">
        <ele>306</ele>
        <time>2019-02-15T10:26:04Z</time>
      </trkpt>
      <trkpt lat="45.03498" lon="4.68201">
        <ele>306</ele>
        <time>2019-02-15T10:27:04Z</time>
      </trkpt>
      <trkpt lat="45.03522" lon="4.6824">
        <ele>306</ele>
        <time>2019-02-15T10:28:04Z</time>
      </trkpt>
      <trkpt lat="45.03535" lon="4.68292">
        <ele>305</ele>
        <time>2019-02-15T10:29:04Z</time>
      </trkpt>
      <trkpt lat="45.03543" lon="4.68305">
        <ele>304</ele>
        <time>2019-02-15T10:30:04Z</time>
      </trkpt>
      <trkpt lat="45.03543" lon="4.68305">
        <ele>304</ele>
        <time>2019-02-15T10:31:04Z</time>
      </trkpt>
      <trkpt lat="45.03533" lon="4.68328">
        <ele>303</ele>
        <time>2019-02-15T10:32:04Z</time>
      </trkpt>
      <trkpt lat="45.03503" lon="4.68364">
        <ele>302</ele>
        <time>2019-02-15T10:33:04Z</time>
      </trkpt>
      <trkpt lat="45.03495" lon="4.68386">
        <ele>302</ele>
        <time>2019-02-15T10:34:04Z</time>
      </trkpt>
      <trkpt lat="45.03485" lon="4.68458">
        <ele>300</ele>
        <time>2019-02-15T10:35:04Z</time>
      </trkpt>
      <trkpt lat="45.03484" lon="4.68491">
        <ele>299</ele>
        <time>2019-02-15T10:36:04Z</time>
      </trkpt>
      <trkpt lat="45.03488" lon="4.68528">
        <ele>298</ele>
        <time>2019-02-15T10:37:04Z</time>
      </trkpt>
      <trkpt lat="45.03484" lon="4.68558">
        <ele>298</ele>
        <time>2019-02-15T10:38:04Z</time>
      </trkpt>
      <trkpt lat="45.03466" lon="4.68602">
        <ele>300</ele>
        <time>2019-02-15T10:39:04Z</time>
      </trkpt>
      <trkpt lat="45.0346" lon="4.68628">
        <ele>301</ele>
        <time>2019-02-15T10:40:04Z</time>
      </trkpt>
      <trkpt lat="45.0346" lon="4.68628">
        <ele>301</ele>
        <time>2019-02-15T10:41:04Z</time>
      </trkpt>
      <trkpt lat="45.03463" lon="4.68664">
        <ele>299</ele>
        <time>2019-02-15T10:42:04Z</time>
      </trkpt>
      <trkpt lat="45.03461" lon="4.68738">
        <ele>303</ele>
        <time>2019-02-15T10:43:04Z</time>
      </trkpt>
      <trkpt lat="45.03452" lon="4.68782">
        <ele>305</ele>
        <time>2019-02-15T10:44:04Z</time>
      </trkpt>
      <trkpt lat="45.03432" lon="4.6883">
        <ele>309</ele>
        <time>2019-02-15T10:45:04Z</time>
      </trkpt>
      <trkpt lat="45.03426" lon="4.6886">
        <ele>313</ele>
        <time>2019-02-15T10:46:04Z</time>
      </trkpt>
      <trkpt lat="45.03434" lon="4.6889">
        <ele>313</ele>
        <time>2019-02-15T10:47:04Z</time>
      </trkpt>
      <trkpt lat="45.03468" lon="4.68967">
        <ele>303</ele>
        <time>2019-02-15T10:48:04Z</time>
      </trkpt>
      <trkpt lat="45.03473" lon="4.6899">
        <ele>301</ele>
        <time>2019-02-15T10:49:04Z</time>
      </trkpt>
      <trkpt lat="45.03473" lon="4.6899">
        <ele>301</ele>
        <time>2019-02-15T10:50:04Z</time>
      </trkpt>
      <trkpt lat="45.03474" lon="4.68996">
        <ele>300</ele>
        <time>2019-02-15T10:51:04Z</time>
      </trkpt>
      <trkpt lat="45.03469" lon="4.69003">
        <ele>301</ele>
        <time>2019-02-15T10:52:04Z</time>
      </trkpt>
      <trkpt lat="45.03452" lon="4.6901">
        <ele>305</ele>
        <time>2019-02-15T10:53:04Z</time>
      </trkpt>
      <trkpt lat="45.0343" lon="4.69044">
        <ele>304</ele>
        <time>2019-02-15T10:54:04Z</time>
      </trkpt>
      <trkpt lat="45.03403" lon="4.69067">
        <ele>304</ele>
        <time>2019-02-15T10:55:04Z</time>
      </trkpt>
      <trkpt lat="45.03374" lon="4.69064">
        <ele>310</ele>
        <time>2019-02-15T10:56:04Z</time>
      </trkpt>
      <trkpt lat="45.0331" lon="4.69068">
        <ele>318</ele>
        <time>2019-02-15T10:57:04Z</time>
      </trkpt>
      <trkpt lat="45.03265" lon="4.69058">
        <ele>323</ele>
        <time>2019-02-15T10:58:04Z</time>
      </trkpt>
      <trkpt lat="45.03204" lon="4.69075">
        <ele>329</ele>
        <time>2019-02-15T10:59:04Z</time>
      </trkpt>
      <trkpt lat="45.03203" lon="4.69085">
        <ele>328</ele>
        <time>2019-02-15T11:00:04Z</time>
      </trkpt>
      <trkpt lat="45.03228" lon="4.69101">
        <ele>327</ele>
        <time>2019-02-15T11:01:04Z</time>
      </trkpt>
      <trkpt lat="45.03238" lon="4.69115">
        <ele>328</ele>
        <time>2019-02-15T11:02:04Z</time>
      </trkpt>
      <trkpt lat="45.0327" lon="4.69118">
        <ele>322</ele>
        <time>2019-02-15T11:03:04Z</time>
      </trkpt>
      <trkpt lat="45.03309" lon="4.6914">
        <ele>317</ele>
        <time>2019-02-15T11:04:04Z</time>
      </trkpt>
      <trkpt lat="45.03311" lon="4.69156">
        <ele>318</ele>
        <time>2019-02-15T11:05:04Z</time>
      </trkpt>
      <trkpt lat="45.03296" lon="4.69208">
        <ele>327</ele>
        <time>2019-02-15T11:06:04Z</time>
      </trkpt>
      <trkpt lat="45.03296" lon="4.69208">
        <ele>327</ele>
        <time>2019-02-15T11:07:04Z</time>
      </trkpt>
      <trkpt lat="45.03266" lon="4.69263">
        <ele>340</ele>
        <time>2019-02-15T11:08:04Z</time>
      </trkpt>
      <trkpt lat="45.0326" lon="4.69309">
        <ele>338</ele>
        <time>2019-02-15T11:09:04Z</time>
      </trkpt>
      <trkpt lat="45.03247" lon="4.6935">
        <ele>339</ele>
        <time>2019-02-15T11:10:04Z</time>
      </trkpt>
      <trkpt lat="45.03201" lon="4.69376">
        <ele>352</ele>
        <time>2019-02-15T11:11:04Z</time>
      </trkpt>
      <trkpt lat="45.03175" lon="4.69405">
        <ele>353</ele>
        <time>2019-02-15T11:12:04Z</time>
      </trkpt>
      <trkpt lat="45.03148" lon="4.69468">
        <ele>358</ele>
        <time>2019-02-15T11:13:04Z</time>
      </trkpt>
      <trkpt lat="45.03133" lon="4.69484">
        <ele>362</ele>
        <time>2019-02-15T11:14:04Z</time>
      </trkpt>
      <trkpt lat="45.03138" lon="4.69492">
        <ele>361</ele>
        <time>2019-02-15T11:15:04Z</time>
      </trkpt>
      <trkpt lat="45.03159" lon="4.69493">
        <ele>356</ele>
        <time>2019-02-15T11:16:04Z</time>
      </trkpt>
      <trkpt lat="45.03123" lon="4.69548">
        <ele>371</ele>
        <time>2019-02-15T11:17:04Z</time>
      </trkpt>
      <trkpt lat="45.03105" lon="4.69564">
        <ele>374</ele>
        <time>2019-02-15T11:18:04Z</time>
      </trkpt>
      <trkpt lat="45.031" lon="4.69574">
        <ele>375</ele>
        <time>2019-02-15T11:19:04Z</time>
      </trkpt>
      <trkpt lat="45.0311" lon="4.69574">
        <ele>375</ele>
        <time>2019-02-15T11:20:04Z</time>
      </trkpt>
      <trkpt lat="45.03169" lon="4.69549">
        <ele>368</ele>
        <time>2019-02-15T11:21:04Z</time>
      </trkpt>
      <trkpt lat="45.03182" lon="4.69552">
        <ele>371</ele>
        <time>2019-02-15T11:22:04Z</time>
      </trkpt>
      <trkpt lat="45.03198" lon="4.69568">
        <ele>377</ele>
        <time>2019-02-15T11:23:04Z</time>
      </trkpt>
      <trkpt lat="45.03232" lon="4.69573">
        <ele>382</ele>
        <time>2019-02-15T11:24:04Z</time>
      </trkpt>
      <trkpt lat="45.03255" lon="4.69562">
        <ele>382</ele>
        <time>2019-02-15T11:25:04Z</time>
      </trkpt>
      <trkpt lat="45.0325" lon="4.69537">
        <ele>375</ele>
        <time>2019-02-15T11:26:04Z</time>
      </trkpt>
      <trkpt lat="45.03251" lon="4.69522">
        <ele>372</ele>
        <time>2019-02-15T11:27:04Z</time>
      </trkpt>
      <trkpt lat="45.03268" lon="4.69515">
        <ele>373</ele>
        <time>2019-02-15T11:28:04Z</time>
      </trkpt>
      <trkpt lat="45.03276" lon="4.69515">
        <ele>374</ele>
        <time>2019-02-15T11:29:04Z</time>
      </trkpt>
      <trkpt lat="45.03292" lon="4.69532">
        <ele>381</ele>
        <time>2019-02-15T11:30:04Z</time>
      </trkpt>
      <trkpt lat="45.03314" lon="4.69572">
        <ele>390</ele>
        <time>2019-02-15T11:31:04Z</time>
      </trkpt>
      <trkpt lat="45.03314" lon="4.69572">
        <ele>390</ele>
        <time>2019-02-15T11:32:04Z</time>
      </trkpt>
      <trkpt lat="45.03297" lon="4.69568">
        <ele>388</ele>
        <time>2019-02-15T11:33:04Z</time>
      </trkpt>
      <trkpt lat="45.03299" lon="4.69595">
        <ele>393</ele>
        <time>2019-02-15T11:34:04Z</time>
      </trkpt>
      <trkpt lat="45.03316" lon="4.69646">
        <ele>404</ele>
        <time>2019-02-15T11:35:04Z</time>
      </trkpt>
      <trkpt lat="45.0331" lon="4.69677">
        <ele>410</ele>
        <time>2019-02-15T11:36:04Z</time>
      </trkpt>
      <trkpt lat="45.03296" lon="4.69679">
        <ele>412</ele>
        <time>2019-02-15T11:37:04Z</time>
      </trkpt>
      <trkpt lat="45.03263" lon="4.69658">
        <ele>409</ele>
        <time>2019-02-15T11:38:04Z</time>
      </trkpt>
      <trkpt lat="45.03234" lon="4.69659">
        <ele>410</ele>
        <time>2019-02-15T11:39:04Z</time>
      </trkpt>
      <trkpt lat="45.03234" lon="4.69659">
        <ele>410</ele>
        <time>2019-02-15T11:40:04Z</time>
      </trkpt>
      <trkpt lat="45.03208" lon="4.69667">
        <ele>412</ele>
        <time>2019-02-15T11:41:04Z</time>
      </trkpt>
      <trkpt lat="45.03207" lon="4.69673">
        <ele>413</ele>
        <time>2019-02-15T11:42:04Z</time>
      </trkpt>
      <trkpt lat="45.03214" lon="4.69686">
        <ele>417</ele>
        <time>2019-02-15T11:43:04Z</time>
      </trkpt>
      <trkpt lat="45.03228" lon="4.69697">
        <ele>420</ele>
        <time>2019-02-15T11:44:04Z</time>
      </trkpt>
      <trkpt lat="45.03183" lon="4.69741">
        <ele>430</ele>
        <time>2019-02-15T11:45:04Z</time>
      </trkpt>
      <trkpt lat="45.03182" lon="4.69748">
        <ele>432</ele>
        <time>2019-02-15T11:46:04Z</time>
      </trkpt>
      <trkpt lat="45.03196" lon="4.69792">
        <ele>439</ele>
        <time>2019-02-15T11:47:04Z</time>
      </trkpt>
      <trkpt lat="45.03239" lon="4.69874">
        <ele>453</ele>
        <time>2019-02-15T11:48:04Z</time>
      </trkpt>
      <trkpt lat="45.03282" lon="4.6997">
        <ele>464</ele>
        <time>2019-02-15T11:49:04Z</time>
      </trkpt>
      <trkpt lat="45.03282" lon="4.6997">
        <ele>464</ele>
        <time>2019-02-15T11:50:04Z</time>
      </trkpt>
      <trkpt lat="45.03264" lon="4.69986">
        <ele>466</ele>
        <time>2019-02-15T11:51:04Z</time>
      </trkpt>
      <trkpt lat="45.03239" lon="4.70029">
        <ele>467</ele>
        <time>2019-02-15T11:52:04Z</time>
      </trkpt>
      <trkpt lat="45.03221" lon="4.70041">
        <ele>467</ele>
        <time>2019-02-15T11:53:04Z</time>
      </trkpt>
      <trkpt lat="45.032" lon="4.70043">
        <ele>467</ele>
        <time>2019-02-15T11:54:04Z</time>
      </trkpt>
      <trkpt lat="45.032" lon="4.70043">
        <ele>467</ele>
        <time>2019-02-15T11:55:04Z</time>
      </trkpt>
      <trkpt lat="45.03185" lon="4.70083">
        <ele>470</ele>
        <time>2019-02-15T11:56:04Z</time>
      </trkpt>
      <trkpt lat="45.03177" lon="4.7012">
        <ele>467</ele>
        <time>2019-02-15T11:57:04Z</time>
      </trkpt>
      <trkpt lat="45.0317" lon="4.70167">
        <ele>465</ele>
        <time>2019-02-15T11:58:04Z</time>
      </trkpt>
      <trkpt lat="45.03171" lon="4.70199">
        <ele>463</ele>
        <time>2019-02-15T11:59:04Z</time>
      </trkpt>
      <trkpt lat="45.03149" lon="4.70235">
        <ele>465</ele>
        <time>2019-02-15T12:00:04Z</time>
      </trkpt>
      <trkpt lat="45.03149" lon="4.70254">
        <ele>465</ele>
        <time>2019-02-15T12:01:04Z</time>
      </trkpt>
      <trkpt lat="45.03169" lon="4.70298">
        <ele>461</ele>
        <time>2019-02-15T12:02:04Z</time>
      </trkpt>
      <trkpt lat="45.03169" lon="4.70298">
        <ele>461</ele>
        <time>2019-02-15T12:03:04Z</time>
      </trkpt>
      <trkpt lat="45.03174" lon="4.70312">
        <ele>460</ele>
        <time>2019-02-15T12:04:04Z</time>
      </trkpt>
      <trkpt lat="45.03199" lon="4.70345">
        <ele>456</ele>
        <time>2019-02-15T12:05:04Z</time>
      </trkpt>
      <trkpt lat="45.03204" lon="4.70398">
        <ele>458</ele>
        <time>2019-02-15T12:06:04Z</time>
      </trkpt>
      <trkpt lat="45.03244" lon="4.70481">
        <ele>458</ele>
        <time>2019-02-15T12:07:04Z</time>
      </trkpt>
      <trkpt lat="45.03314" lon="4.70588">
        <ele>464</ele>
        <time>2019-02-15T12:08:04Z</time>
      </trkpt>
      <trkpt lat="45.03363" lon="4.70636">
        <ele>464</ele>
        <time>2019-02-15T12:09:04Z</time>
      </trkpt>
      <trkpt lat="45.03373" lon="4.70676">
        <ele>468</ele>
        <time>2019-02-15T12:10:04Z</time>
      </trkpt>
      <trkpt lat="45.03381" lon="4.70692">
        <ele>470</ele>
        <time>2019-02-15T12:11:04Z</time>
      </trkpt>
      <trkpt lat="45.03444" lon="4.70724">
        <ele>473</ele>
        <time>2019-02-15T12:12:04Z</time>
      </trkpt>
      <trkpt lat="45.03495" lon="4.70732">
        <ele>474</ele>
        <time>2019-02-15T12:13:04Z</time>
      </trkpt>
      <trkpt lat="45.03523" lon="4.70725">
        <ele>473</ele>
        <time>2019-02-15T12:14:04Z</time>
      </trkpt>
      <trkpt lat="45.03523" lon="4.70725">
        <ele>473</ele>
        <time>2019-02-15T12:15:04Z</time>
      </trkpt>
      <trkpt lat="45.03543" lon="4.70719">
        <ele>473</ele>
        <time>2019-02-15T12:16:04Z</time>
      </trkpt>
      <trkpt lat="45.03565" lon="4.70726">
        <ele>473</ele>
        <time>2019-02-15T12:17:04Z</time>
      </trkpt>
      <trkpt lat="45.03584" lon="4.7075">
        <ele>474</ele>
        <time>2019-02-15T12:18:04Z</time>
      </trkpt>
      <trkpt lat="45.03593" lon="4.70774">
        <ele>474</ele>
        <time>2019-02-15T12:19:04Z</time>
      </trkpt>
      <trkpt lat="45.03593" lon="4.70774">
        <ele>474</ele>
        <time>2019-02-15T12:20:04Z</time>
      </trkpt>
      <trkpt lat="45.03585" lon="4.70795">
        <ele>475</ele>
        <time>2019-02-15T12:21:04Z</time>
      </trkpt>
      <trkpt lat="45.0355" lon="4.70821">
        <ele>480</ele>
        <time>2019-02-15T12:22:04Z</time>
      </trkpt>
      <trkpt lat="45.03541" lon="4.70854">
        <ele>482</ele>
        <time>2019-02-15T12:23:04Z</time>
      </trkpt>
      <trkpt lat="45.03541" lon="4.70854">
        <ele>482</ele>
        <time>2019-02-15T12:24:04Z</time>
      </trkpt>
      <trkpt lat="45.03527" lon="4.70845">
        <ele>484</ele>
        <time>2019-02-15T12:25:04Z</time>
      </trkpt>
      <trkpt lat="45.03518" lon="4.70846">
        <ele>485</ele>
        <time>2019-02-15T12:26:04Z</time>
      </trkpt>
      <trkpt lat="45.03474" lon="4.70882">
        <ele>490</ele>
        <time>2019-02-15T12:27:04Z</time>
      </trkpt>
      <trkpt lat="45.03454" lon="4.70907">
        <ele>493</ele>
        <time>2019-02-15T12:28:04Z</time>
      </trkpt>
      <trkpt lat="45.03454" lon="4.70907">
        <ele>493</ele>
        <time>2019-02-15T12:29:04Z</time>
      </trkpt>
      <trkpt lat="45.03442" lon="4.70921">
        <ele>494</ele>
        <time>2019-02-15T12:30:04Z</time>
      </trkpt>
      <trkpt lat="45.03401" lon="4.7095">
        <ele>500</ele>
        <time>2019-02-15T12:31:04Z</time>
      </trkpt>
      <trkpt lat="45.03319" lon="4.7103">
        <ele>513</ele>
        <time>2019-02-15T12:32:04Z</time>
      </trkpt>
      <trkpt lat="45.03299" lon="4.71075">
        <ele>514</ele>
        <time>2019-02-15T12:33:04Z</time>
      </trkpt>
      <trkpt lat="45.03294" lon="4.71075">
        <ele>514</ele>
        <time>2019-02-15T12:34:04Z</time>
      </trkpt>
      <trkpt lat="45.03282" lon="4.7104">
        <ele>515</ele>
        <time>2019-02-15T12:35:04Z</time>
      </trkpt>
      <trkpt lat="45.03273" lon="4.71025">
        <ele>515</ele>
        <time>2019-02-15T12:36:04Z</time>
      </trkpt>
      <trkpt lat="45.03224" lon="4.71021">
        <ele>519</ele>
        <time>2019-02-15T12:37:04Z</time>
      </trkpt>
      <trkpt lat="45.03113" lon="4.70946">
        <ele>530</ele>
        <time>2019-02-15T12:38:04Z</time>
      </trkpt>
      <trkpt lat="45.03091" lon="4.70948">
        <ele>532</ele>
        <time>2019-02-15T12:39:04Z</time>
      </trkpt>
      <trkpt lat="45.03042" lon="4.70991">
        <ele>537</ele>
        <time>2019-02-15T12:40:04Z</time>
      </trkpt>
      <trkpt lat="45.03028" lon="4.70996">
        <ele>539</ele>
        <time>2019-02-15T12:41:04Z</time>
      </trkpt>
      <trkpt lat="45.02977" lon="4.70977">
        <ele>545</ele>
        <time>2019-02-15T12:42:04Z</time>
      </trkpt>
      <trkpt lat="45.02951" lon="4.70953">
        <ele>549</ele>
        <time>2019-02-15T12:43:04Z</time>
      </trkpt>
      <trkpt lat="45.02928" lon="4.70921">
        <ele>553</ele>
        <time>2019-02-15T12:44:04Z</time>
      </trkpt>
      <trkpt lat="45.02928" lon="4.70921">
        <ele>553</ele>
        <time>2019-02-15T12:45:04Z</time>
      </trkpt>
      <trkpt lat="45.02907" lon="4.70897">
        <ele>554</ele>
        <time>2019-02-15T12:46:04Z</time>
      </trkpt>
      <trkpt lat="45.02894" lon="4.70895">
        <ele>555</ele>
        <time>2019-02-15T12:47:04Z</time>
      </trkpt>
      <trkpt lat="45.02881" lon="4.70904">
        <ele>555</ele>
        <time>2019-02-15T12:48:04Z</time>
      </trkpt>
      <trkpt lat="45.02881" lon="4.70904">
        <ele>555</ele>
        <time>2019-02-15T12:49:04Z</time>
      </trkpt>
      <trkpt lat="45.02873" lon="4.70886">
        <ele>556</ele>
        <time>2019-02-15T12:50:04Z</time>
      </trkpt>
      <trkpt lat="45.02752" lon="4.70813">
        <ele>561</ele>
        <time>2019-02-15T12:51:04Z</time>
      </trkpt>
      <trkpt lat="45.02752" lon="4.70813">
        <ele>561</ele>
        <time>2019-02-15T12:52:04Z</time>
      </trkpt>
      <trkpt lat="45.02671" lon="4.70744">
        <ele>566</ele>
        <time>2019-02-15T12:53:04Z</time>
      </trkpt>
      <trkpt lat="45.02651" lon="4.70734">
        <ele>566</ele>
        <time>2019-02-15T12:54:04Z</time>
      </trkpt>
      <trkpt lat="45.02615" lon="4.70725">
        <ele>565</ele>
        <time>2019-02-15T12:55:04Z</time>
      </trkpt>
      <trkpt lat="45.02533" lon="4.70737">
        <ele>567</ele>
        <time>2019-02-15T12:56:04Z</time>
      </trkpt>
      <trkpt lat="45.02475" lon="4.70696">
        <ele>565</ele>
        <time>2019-02-15T12:57:04Z</time>
      </trkpt>
      <trkpt lat="45.02407" lon="4.70665">
        <ele>568</ele>
        <time>2019-02-15T12:58:04Z</time>
      </trkpt>
      <trkpt lat="45.02407" lon="4.70665">
        <ele>568</ele>
        <time>2019-02-15T12:59:04Z</time>
      </trkpt>
      <trkpt lat="45.02386" lon="4.7065">
        <ele>570</ele>
        <time>2019-02-15T13:00:04Z</time>
      </trkpt>
      <trkpt lat="45.02361" lon="4.70617">
        <ele>572</ele>
        <time>2019-02-15T13:01:04Z</time>
      </trkpt>
      <trkpt lat="45.02361" lon="4.70617">
        <ele>572</ele>
        <time>2019-02-15T13:02:04Z</time>
      </trkpt>
      <trkpt lat="45.02353" lon="4.70588">
        <ele>572</ele>
        <time>2019-02-15T13:03:04Z</time>
      </trkpt>
      <trkpt lat="45.02347" lon="4.70533">
        <ele>572</ele>
        <time>2019-02-15T13:04:04Z</time>
      </trkpt>
      <trkpt lat="45.02327" lon="4.70455">
        <ele>575</ele>
        <time>2019-02-15T13:05:04Z</time>
      </trkpt>
      <trkpt lat="45.02334" lon="4.7036">
        <ele>575</ele>
        <time>2019-02-15T13:06:04Z</time>
      </trkpt>
      <trkpt lat="45.02281" lon="4.70217">
        <ele>577</ele>
        <time>2019-02-15T13:07:04Z</time>
      </trkpt>
      <trkpt lat="45.02262" lon="4.70182">
        <ele>579</ele>
        <time>2019-02-15T13:08:04Z</time>
      </trkpt>
      <trkpt lat="45.02198" lon="4.70106">
        <ele>586</ele>
        <time>2019-02-15T13:09:04Z</time>
      </trkpt>
      <trkpt lat="45.0218" lon="4.70074">
        <ele>589</ele>
        <time>2019-02-15T13:10:04Z</time>
      </trkpt>
      <trkpt lat="45.02155" lon="4.69881">
        <ele>602</ele>
        <time>2019-02-15T13:11:04Z</time>
      </trkpt>
      <trkpt lat="45.0214" lon="4.69819">
        <ele>605</ele>
        <time>2019-02-15T13:12:04Z</time>
      </trkpt>
      <trkpt lat="45.02127" lon="4.69782">
        <ele>608</ele>
        <time>2019-02-15T13:13:04Z</time>
      </trkpt>
      <trkpt lat="45.02099" lon="4.69748">
        <ele>611</ele>
        <time>2019-02-15T13:14:04Z</time>
      </trkpt>
      <trkpt lat="45.02073" lon="4.69728">
        <ele>612</ele>
        <time>2019-02-15T13:15:04Z</time>
      </trkpt>
      <trkpt lat="45.01905" lon="4.69633">
        <ele>610</ele>
        <time>2019-02-15T13:16:04Z</time>
      </trkpt>
      <trkpt lat="45.01847" lon="4.69565">
        <ele>612</ele>
        <time>2019-02-15T13:17:04Z</time>
      </trkpt>
      <trkpt lat="45.01796" lon="4.6948">
        <ele>613</ele>
        <time>2019-02-15T13:18:04Z</time>
      </trkpt>
      <trkpt lat="45.01773" lon="4.69426">
        <ele>613</ele>
        <time>2019-02-15T13:19:04Z</time>
      </trkpt>
      <trkpt lat="45.01755" lon="4.69366">
        <ele>614</ele>
        <time>2019-02-15T13:20:04Z</time>
      </trkpt>
      <trkpt lat="45.01749" lon="4.69325">
        <ele>614</ele>
        <time>2019-02-15T13:21:04Z</time>
      </trkpt>
      <trkpt lat="45.01736" lon="4.69281">
        <ele>612</ele>
        <time>2019-02-15T13:22:04Z</time>
      </trkpt>
      <trkpt lat="45.01716" lon="4.69248">
        <ele>612</ele>
        <time>2019-02-15T13:23:04Z</time>
      </trkpt>
      <trkpt lat="45.01676" lon="4.69199">
        <ele>609</ele>
        <time>2019-02-15T13:24:04Z</time>
      </trkpt>
      <trkpt lat="45.01645" lon="4.69177">
        <ele>606</ele>
        <time>2019-02-15T13:25:04Z</time>
      </trkpt>
      <trkpt lat="45.01603" lon="4.69167">
        <ele>604</ele>
        <time>2019-02-15T13:26:04Z</time>
      </trkpt>
      <trkpt lat="45.01545" lon="4.69161">
        <ele>601</ele>
        <time>2019-02-15T13:27:04Z</time>
      </trkpt>
      <trkpt lat="45.01545" lon="4.69161">
        <ele>601</ele>
        <time>2019-02-15T13:28:04Z</time>
      </trkpt>
      <trkpt lat="45.01521" lon="4.69157">
        <ele>600</ele>
        <time>2019-02-15T13:29:04Z</time>
      </trkpt>
      <trkpt lat="45.01511" lon="4.69143">
        <ele>598</ele>
        <time>2019-02-15T13:30:04Z</time>
      </trkpt>
      <trkpt lat="45.01477" lon="4.6912">
        <ele>595</ele>
        <time>2019-02-15T13:31:04Z</time>
      </trkpt>
      <trkpt lat="45.01471" lon="4.6911">
        <ele>595</ele>
        <time>2019-02-15T13:32:04Z</time>
      </trkpt>
      <trkpt lat="45.01471" lon="4.6911">
        <ele>595</ele>
        <time>2019-02-15T13:33:04Z</time>
      </trkpt>
      <trkpt lat="45.01411" lon="4.69062">
        <ele>596</ele>
        <time>2019-02-15T13:34:04Z</time>
      </trkpt>
      <trkpt lat="45.01411" lon="4.69062">
        <ele>596</ele>
        <time>2019-02-15T13:35:04Z</time>
      </trkpt>
      <trkpt lat="45.01397" lon="4.69007">
        <ele>598</ele>
        <time>2019-02-15T13:36:04Z</time>
      </trkpt>
      <trkpt lat="45.01397" lon="4.69007">
        <ele>598</ele>
        <time>2019-02-15T13:37:04Z</time>
      </trkpt>
      <trkpt lat="45.01387" lon="4.68946">
        <ele>602</ele>
        <time>2019-02-15T13:38:04Z</time>
      </trkpt>
      <trkpt lat="45.01388" lon="4.68905">
        <ele>604</ele>
        <time>2019-02-15T13:39:04Z</time>
      </trkpt>
      <trkpt lat="45.01408" lon="4.68762">
        <ele>607</ele>
        <time>2019-02-15T13:40:04Z</time>
      </trkpt>
      <trkpt lat="45.01422" lon="4.68722">
        <ele>608</ele>
        <time>2019-02-15T13:41:04Z</time>
      </trkpt>
      <trkpt lat="45.01449" lon="4.68667">
        <ele>609</ele>
        <time>2019-02-15T13:42:04Z</time>
      </trkpt>
      <trkpt lat="45.01465" lon="4.68585">
        <ele>616</ele>
        <time>2019-02-15T13:43:04Z</time>
      </trkpt>
      <trkpt lat="45.01498" lon="4.68491">
        <ele>621</ele>
        <time>2019-02-15T13:44:04Z</time>
      </trkpt>
      <trkpt lat="45.01559" lon="4.6835">
        <ele>622</ele>
        <time>2019-02-15T13:45:04Z</time>
      </trkpt>
      <trkpt lat="45.01569" lon="4.68269">
        <ele>620</ele>
        <time>2019-02-15T13:46:04Z</time>
      </trkpt>
      <trkpt lat="45.01585" lon="4.68215">
        <ele>617</ele>
        <time>2019-02-15T13:47:04Z</time>
      </trkpt>
      <trkpt lat="45.01593" lon="4.68169">
        <ele>616</ele>
        <time>2019-02-15T13:48:04Z</time>
      </trkpt>
      <trkpt lat="45.01606" lon="4.68122">
        <ele>615</ele>
        <time>2019-02-15T13:49:04Z</time>
      </trkpt>
      <trkpt lat="45.01629" lon="4.68073">
        <ele>614</ele>
        <time>2019-02-15T13:50:04Z</time>
      </trkpt>
      <trkpt lat="45.01653" lon="4.6797">
        <ele>616</ele>
        <time>2019-02-15T13:51:04Z</time>
      </trkpt>
      <trkpt lat="45.01653" lon="4.6797">
        <ele>616</ele>
        <time>2019-02-15T13:52:04Z</time>
      </trkpt>
      <trkpt lat="45.01662" lon="4.67949">
        <ele>616</ele>
        <time>2019-02-15T13:53:04Z</time>
      </trkpt>
      <trkpt lat="45.01696" lon="4.67934">
        <ele>612</ele>
        <time>2019-02-15T13:54:04Z</time>
      </trkpt>
      <trkpt lat="45.01709" lon="4.67921">
        <ele>612</ele>
        <time>2019-02-15T13:55:04Z</time>
      </trkpt>
      <trkpt lat="45.01725" lon="4.67889">
        <ele>610</ele>
        <time>2019-02-15T13:56:04Z</time>
      </trkpt>
      <trkpt lat="45.01725" lon="4.67889">
        <ele>610</ele>
        <time>2019-02-15T13:57:04Z</time>
      </trkpt>
      <trkpt lat="45.01733" lon="4.679">
        <ele>609</ele>
        <time>2019-02-15T13:58:04Z</time>
      </trkpt>
      <trkpt lat="45.01732" lon="4.67956">
        <ele>606</ele>
        <time>2019-02-15T13:59:04Z</time>
      </trkpt>
      <trkpt lat="45.01773" lon="4.67927">
        <ele>603</ele>
        <time>2019-02-15T14:00:04Z</time>
      </trkpt>
      <trkpt lat="45.01794" lon="4.67919">
        <ele>601</ele>
        <time>2019-02-15T14:01:04Z</time>
      </trkpt>
      <trkpt lat="45.01851" lon="4.67924">
        <ele>594</ele>
        <time>2019-02-15T14:02:04Z</time>
      </trkpt>
      <trkpt lat="45.01851" lon="4.67924">
        <ele>594</ele>
        <time>2019-02-15T14:03:04Z</time>
      </trkpt>
      <trkpt lat="45.02" lon="4.68002">
        <ele>580</ele>
        <time>2019-02-15T14:04:04Z</time>
      </trkpt>
      <trkpt lat="45.02043" lon="4.68005">
        <ele>575</ele>
        <time>2019-02-15T14:05:04Z</time>
      </trkpt>
      <trkpt lat="45.02052" lon="4.67994">
        <ele>575</ele>
        <time>2019-02-15T14:06:04Z</time>
      </trkpt>
      <trkpt lat="45.02044" lon="4.67896">
        <ele>569</ele>
        <time>2019-02-15T14:07:04Z</time>
      </trkpt>
      <trkpt lat="45.02069" lon="4.67855">
        <ele>561</ele>
        <time>2019-02-15T14:08:04Z</time>
      </trkpt>
      <trkpt lat="45.02082" lon="4.67841">
        <ele>558</ele>
        <time>2019-02-15T14:09:04Z</time>
      </trkpt>
      <trkpt lat="45.02105" lon="4.67832">
        <ele>552</ele>
        <time>2019-02-15T14:10:04Z</time>
      </trkpt>
      <trkpt lat="45.02185" lon="4.67813">
        <ele>535</ele>
        <time>2019-02-15T14:11:04Z</time>
      </trkpt>
      <trkpt lat="45.02185" lon="4.67813">
        <ele>535</ele>
        <time>2019-02-15T14:12:04Z</time>
      </trkpt>
      <trkpt lat="45.022" lon="4.67815">
        <ele>532</ele>
        <time>2019-02-15T14:13:04Z</time>
      </trkpt>
      <trkpt lat="45.02206" lon="4.67808">
        <ele>531</ele>
        <time>2019-02-15T14:14:04Z</time>
      </trkpt>
      <trkpt lat="45.02205" lon="4.67795">
        <ele>530</ele>
        <time>2019-02-15T14:15:04Z</time>
      </trkpt>
      <trkpt lat="45.02196" lon="4.67777">
        <ele>532</ele>
        <time>2019-02-15T14:16:04Z</time>
      </trkpt>
      <trkpt lat="45.02194" lon="4.67758">
        <ele>532</ele>
        <time>2019-02-15T14:17:04Z</time>
      </trkpt>
      <trkpt lat="45.02198" lon="4.67744">
        <ele>530</ele>
        <time>2019-02-15T14:18:04Z</time>
      </trkpt>
      <trkpt lat="45.02208" lon="4.67735">
        <ele>526</ele>
        <time>2019-02-15T14:19:04Z</time>
      </trkpt>
      <trkpt lat="45.02332" lon="4.67706">
        <ele>502</ele>
        <time>2019-02-15T14:20:04Z</time>
      </trkpt>
      <trkpt lat="45.02359" lon="4.67716">
        <ele>502</ele>
        <time>2019-02-15T14:21:04Z</time>
      </trkpt>
      <trkpt lat="45.02383" lon="4.67718">
        <ele>502</ele>
        <time>2019-02-15T14:22:04Z</time>
      </trkpt>
      <trkpt lat="45.02394" lon="4.67703">
        <ele>501</ele>
        <time>2019-02-15T14:23:04Z</time>
      </trkpt>
      <trkpt lat="45.02404" lon="4.67699">
        <ele>500</ele>
        <time>2019-02-15T14:24:04Z</time>
      </trkpt>
      <trkpt lat="45.02428" lon="4.67714">
        <ele>499</ele>
        <time>2019-02-15T14:25:04Z</time>
      </trkpt>
      <trkpt lat="45.02428" lon="4.67714">
        <ele>499</ele>
        <time>2019-02-15T14:26:04Z</time>
      </trkpt>
      <trkpt lat="45.02428" lon="4.67763">
        <ele>502</ele>
        <time>2019-02-15T14:27:04Z</time>
      </trkpt>
      <trkpt lat="45.0244" lon="4.67763">
        <ele>500</ele>
        <time>2019-02-15T14:28:04Z</time>
      </trkpt>
      <trkpt lat="45.0244" lon="4.67763">
        <ele>500</ele>
        <time>2019-02-15T14:29:04Z</time>
      </trkpt>
      <trkpt lat="45.02454" lon="4.67754">
        <ele>498</ele>
        <time>2019-02-15T14:30:04Z</time>
      </trkpt>
      <trkpt lat="45.02524" lon="4.67764">
        <ele>486</ele>
        <time>2019-02-15T14:31:04Z</time>
      </trkpt>
      <trkpt lat="45.02524" lon="4.67764">
        <ele>486</ele>
        <time>2019-02-15T14:32:04Z</time>
      </trkpt>
      <trkpt lat="45.0254" lon="4.67771">
        <ele>483</ele>
        <time>2019-02-15T14:33:04Z</time>
      </trkpt>
      <trkpt lat="45.02549" lon="4.67794">
        <ele>482</ele>
        <time>2019-02-15T14:34:04Z</time>
      </trkpt>
      <trkpt lat="45.02553" lon="4.67816">
        <ele>481</ele>
        <time>2019-02-15T14:35:04Z</time>
      </trkpt>
      <trkpt lat="45.02543" lon="4.67867">
        <ele>483</ele>
        <time>2019-02-15T14:36:04Z</time>
      </trkpt>
      <trkpt lat="45.02543" lon="4.67867">
        <ele>483</ele>
        <time>2019-02-15T14:37:04Z</time>
      </trkpt>
      <trkpt lat="45.0256" lon="4.67879">
        <ele>480</ele>
        <time>2019-02-15T14:38:04Z</time>
      </trkpt>
      <trkpt lat="45.0256" lon="4.67879">
        <ele>480</ele>
        <time>2019-02-15T14:39:04Z</time>
      </trkpt>
      <trkpt lat="45.02575" lon="4.67824">
        <ele>478</ele>
        <time>2019-02-15T14:40:04Z</time>
      </trkpt>
      <trkpt lat="45.02575" lon="4.67805">
        <ele>478</ele>
        <time>2019-02-15T14:41:04Z</time>
      </trkpt>
      <trkpt lat="45.02567" lon="4.67778">
        <ele>478</ele>
        <time>2019-02-15T14:42:04Z</time>
      </trkpt>
      <trkpt lat="45.02567" lon="4.67778">
        <ele>478</ele>
        <time>2019-02-15T14:43:04Z</time>
      </trkpt>
      <trkpt lat="45.02606" lon="4.67798">
        <ele>472</ele>
        <time>2019-02-15T14:44:04Z</time>
      </trkpt>
      <trkpt lat="45.02606" lon="4.67798">
        <ele>472</ele>
        <time>2019-02-15T14:45:04Z</time>
      </trkpt>
      <trkpt lat="45.02742" lon="4.6786">
        <ele>457</ele>
        <time>2019-02-15T14:46:04Z</time>
      </trkpt>
      <trkpt lat="45.02742" lon="4.6786">
        <ele>457</ele>
        <time>2019-02-15T14:47:04Z</time>
      </trkpt>
      <trkpt lat="45.02763" lon="4.67876">
        <ele>454</ele>
        <time>2019-02-15T14:48:04Z</time>
      </trkpt>
      <trkpt lat="45.02806" lon="4.67895">
        <ele>447</ele>
        <time>2019-02-15T14:49:04Z</time>
      </trkpt>
      <trkpt lat="45.02849" lon="4.67933">
        <ele>435</ele>
        <time>2019-02-15T14:50:04Z</time>
      </trkpt>
      <trkpt lat="45.02866" lon="4.67977">
        <ele>423</ele>
        <time>2019-02-15T14:51:04Z</time>
      </trkpt>
      <trkpt lat="45.02873" lon="4.67977">
        <ele>421</ele>
        <time>2019-02-15T14:52:04Z</time>
      </trkpt>
      <trkpt lat="45.02902" lon="4.67956">
        <ele>413</ele>
        <time>2019-02-15T14:53:04Z</time>
      </trkpt>
      <trkpt lat="45.02927" lon="4.67947">
        <ele>406</ele>
        <time>2019-02-15T14:54:04Z</time>
      </trkpt>
      <trkpt lat="45.03012" lon="4.67937">
        <ele>378</ele>
        <time>2019-02-15T14:55:04Z</time>
      </trkpt>
      <trkpt lat="45.03033" lon="4.67941">
        <ele>371</ele>
        <time>2019-02-15T14:56:04Z</time>
      </trkpt>
      <trkpt lat="45.03049" lon="4.67963">
        <ele>363</ele>
        <time>2019-02-15T14:57:04Z</time>
      </trkpt>
      <trkpt lat="45.03062" lon="4.67962">
        <ele>358</ele>
        <time>2019-02-15T14:58:04Z</time>
      </trkpt>
      <trkpt lat="45.03075" lon="4.67949">
        <ele>355</ele>
        <time>2019-02-15T14:59:04Z</time>
      </trkpt>
      <trkpt lat="45.03083" lon="4.67909">
        <ele>353</ele>
        <time>2019-02-15T15:00:04Z</time>
      </trkpt>
      <trkpt lat="45.0309" lon="4.67908">
        <ele>350</ele>
        <time>2019-02-15T15:01:04Z</time>
      </trkpt>
      <trkpt lat="45.03097" lon="4.67943">
        <ele>346</ele>
        <time>2019-02-15T15:02:04Z</time>
      </trkpt>
      <trkpt lat="45.03095" lon="4.67983">
        <ele>343</ele>
        <time>2019-02-15T15:03:04Z</time>
      </trkpt>
      <trkpt lat="45.0307" lon="4.68006">
        <ele>350</ele>
        <time>2019-02-15T15:04:04Z</time>
      </trkpt>
      <trkpt lat="45.03053" lon="4.6803">
        <ele>351</ele>
        <time>2019-02-15T15:05:04Z</time>
      </trkpt>
      <trkpt lat="45.03036" lon="4.68059">
        <ele>351</ele>
        <time>2019-02-15T15:06:04Z</time>
      </trkpt>
      <trkpt lat="45.0301" lon="4.68129">
        <ele>346</ele>
        <time>2019-02-15T15:07:04Z</time>
      </trkpt>
      <trkpt lat="45.02981" lon="4.68167">
        <ele>344</ele>
        <time>2019-02-15T15:08:04Z</time>
      </trkpt>
      <trkpt lat="45.0296" lon="4.68186">
        <ele>350</ele>
        <time>2019-02-15T15:09:04Z</time>
      </trkpt>
      <trkpt lat="45.02956" lon="4.68197">
        <ele>351</ele>
        <time>2019-02-15T15:10:04Z</time>
      </trkpt>
      <trkpt lat="45.0296" lon="4.68206">
        <ele>351</ele>
        <time>2019-02-15T15:11:04Z</time>
      </trkpt>
      <trkpt lat="45.02993" lon="4.68194">
        <ele>345</ele>
        <time>2019-02-15T15:12:04Z</time>
      </trkpt>
      <trkpt lat="45.03021" lon="4.68192">
        <ele>344</ele>
        <time>2019-02-15T15:13:04Z</time>
      </trkpt>
      <trkpt lat="45.03041" lon="4.68183">
        <ele>342</ele>
        <time>2019-02-15T15:14:04Z</time>
      </trkpt>
      <trkpt lat="45.03085" lon="4.6813">
        <ele>333</ele>
        <time>2019-02-15T15:15:04Z</time>
      </trkpt>
      <trkpt lat="45.03214" lon="4.68053">
        <ele>320</ele>
        <time>2019-02-15T15:16:04Z</time>
      </trkpt>
      <trkpt lat="45.0324" lon="4.6805">
        <ele>320</ele>
        <time>2019-02-15T15:17:04Z</time>
      </trkpt>
      <trkpt lat="45.03254" lon="4.68059">
        <ele>322</ele>
        <time>2019-02-15T15:18:04Z</time>
      </trkpt>
      <trkpt lat="45.0329" lon="4.68056">
        <ele>316</ele>
        <time>2019-02-15T15:19:04Z</time>
      </trkpt>
      <trkpt lat="45.0329" lon="4.68056">
        <ele>316</ele>
        <time>2019-02-15T15:20:04Z</time>
      </trkpt>
      <trkpt lat="45.03293" lon="4.6805">
        <ele>314</ele>
        <time>2019-02-15T15:21:04Z</time>
      </trkpt>
      <trkpt lat="45.03293" lon="4.6805">
        <ele>314</ele>
        <time>2019-02-15T15:22:04Z</time>
      </trkpt>
      <trkpt lat="45.03299" lon="4.68049">
        <ele>313</ele>
        <time>2019-02-15T15:23:04Z</time>
      </trkpt>
      <trkpt lat="45.0341" lon="4.68166">
        <ele>306</ele>
        <time>2019-02-15T15:24:04Z</time>
      </trkpt>
      <trkpt lat="45.03427" lon="4.68169">
        <ele>304</ele>
        <time>2019-02-15T15:25:04Z</time>
      </trkpt>
      <trkpt lat="45.03453" lon="4.68162">
        <ele>305</ele>
        <time>2019-02-15T15:26:04Z</time>
      </trkpt>
      <trkpt lat="45.03461" lon="4.68144">
        <ele>304</ele>
        <time>2019-02-15T15:27:04Z</time>
      </trkpt>
      <trkpt lat="45.03461" lon="4.68144">
        <ele>304</ele>
        <time>2019-02-15T15:28:04Z</time>
      </trkpt>
      <trkpt lat="45.03467" lon="4.68153">
        <ele>305</ele>
        <time>2019-02-15T15:29:04Z</time>
      </trkpt>
      <trkpt lat="45.03467" lon="4.68153">
        <ele>305</ele>
        <time>2019-02-15T15:30:04Z</time>
      </trkpt>
      <trkpt lat="45.03498" lon="4.68201">
        <ele>306</ele>
        <time>2019-02-15T15:31:04Z</time>
      </trkpt>
      <trkpt lat="45.03498" lon="4.68201">
        <ele>306</ele>
        <time>2019-02-15T15:32:04Z</time>
      </trkpt>
      <trkpt lat="45.03488" lon="4.68208">
        <ele>306</ele>
        <time>2019-02-15T15:33:04Z</time>
      </trkpt>
      <trkpt lat="45.03488" lon="4.68208">
        <ele>306</ele>
        <time>2019-02-15T15:34:04Z</time>
      </trkpt>
      <trkpt lat="45.03499" lon="4.68228">
        <ele>306</ele>
        <time>2019-02-15T15:35:04Z</time>
      </trkpt>
    </trkseg>
  </trk>
</gpx>